Time;durP1;ratioP1;P1;durP2;ratioP2;P2;SDS_P1;SDS_P2;PMS_P1;PMS_P2;Temp;Humidity;BMP_temperature;BMP_pressure;BME280_temperature;BME280_humidity;BME280_pressure;Samples;Min_cycle;Max_cycle;Signal;HPM_P1;HPM_P2
2022/07/12 00:00:23;;;;;;;0.80;0.80;;;25.60;44.60;;;;;;5040523;28;20496;-80
2022/07/12 00:02:56;;;;;;;0.60;0.60;;;25.60;44.60;;;;;;5043656;28;20421;-80
2022/07/12 00:05:32;;;;;;;0.80;0.80;;;25.60;44.60;;;;;;5040942;28;20445;-80
2022/07/12 00:08:07;;;;;;;0.80;0.80;;;25.60;44.60;;;;;;5041086;28;20457;-80
2022/07/12 00:10:36;;;;;;;0.80;0.80;;;25.60;44.60;;;;;;5057977;28;20453;-80
2022/07/12 00:13:06;;;;;;;0.70;0.70;;;25.60;45.40;;;;;;5041243;28;20470;-80
2022/07/12 00:15:38;;;;;;;0.97;0.70;;;25.60;44.60;;;;;;5040619;28;20517;-80
2022/07/12 00:18:06;;;;;;;0.80;0.80;;;25.50;44.70;;;;;;5040344;28;20854;-80
2022/07/12 00:20:37;;;;;;;0.70;0.70;;;25.50;44.60;;;;;;5040133;28;20475;-80
2022/07/12 00:23:22;;;;;;;0.67;0.67;;;25.50;44.60;;;;;;5039999;28;21040;-81
2022/07/12 00:25:52;;;;;;;0.77;0.77;;;25.50;44.60;;;;;;5043627;28;20425;-80
2022/07/12 00:28:24;;;;;;;0.70;0.70;;;25.50;44.60;;;;;;5058075;28;20450;-79
2022/07/12 00:30:54;;;;;;;0.70;0.70;;;25.50;44.50;;;;;;5064528;28;20417;-81
2022/07/12 00:33:23;;;;;;;0.93;0.90;;;25.50;44.60;;;;;;5064123;28;20466;-80
2022/07/12 00:35:51;;;;;;;0.60;0.60;;;25.50;44.60;;;;;;5060477;28;20512;-79
2022/07/12 00:38:19;;;;;;;0.70;0.70;;;25.50;44.60;;;;;;5056668;28;20442;-79
2022/07/12 00:40:47;;;;;;;0.70;0.70;;;25.50;44.60;;;;;;5057831;28;20941;-79
2022/07/12 00:43:16;;;;;;;0.70;0.70;;;25.50;44.60;;;;;;5045575;28;20548;-79
2022/07/12 00:45:46;;;;;;;0.70;0.70;;;25.50;44.50;;;;;;5038441;28;20505;-80
2022/07/12 00:48:17;;;;;;;0.77;0.77;;;25.40;44.50;;;;;;5041010;28;20451;-80
2022/07/12 00:50:46;;;;;;;0.70;0.70;;;25.40;44.50;;;;;;5040322;28;20422;-80
2022/07/12 00:53:18;;;;;;;0.73;0.73;;;25.40;44.40;;;;;;5040323;28;20442;-80
2022/07/12 00:55:47;;;;;;;0.70;0.70;;;25.40;44.40;;;;;;5040050;28;20482;-80
2022/07/12 00:58:15;;;;;;;0.60;0.60;;;25.40;44.50;;;;;;5041215;28;20417;-80
2022/07/12 01:00:51;;;;;;;0.70;0.70;;;25.40;44.50;;;;;;5058068;28;20447;-79
2022/07/12 01:03:19;;;;;;;0.80;0.80;;;25.40;44.50;;;;;;5053957;28;20437;-80
2022/07/12 01:05:48;;;;;;;0.80;0.80;;;25.40;44.60;;;;;;5059331;28;20413;-80
2022/07/12 01:08:18;;;;;;;0.70;0.70;;;25.30;44.40;;;;;;5060764;28;20427;-80
2022/07/12 01:10:46;;;;;;;0.63;0.63;;;25.30;44.50;;;;;;5060576;28;20457;-80
2022/07/12 01:13:15;;;;;;;0.70;0.70;;;25.30;44.50;;;;;;5061753;28;20553;-79
2022/07/12 01:15:46;;;;;;;0.90;0.70;;;25.30;44.40;;;;;;5058542;28;20481;-80
2022/07/12 01:18:14;;;;;;;0.70;0.70;;;25.30;44.40;;;;;;5055621;28;20421;-80
2022/07/12 01:20:43;;;;;;;0.70;0.70;;;25.30;44.50;;;;;;5054881;28;20432;-78
2022/07/12 01:23:12;;;;;;;0.80;0.80;;;25.30;44.50;;;;;;5055912;28;20470;-79
2022/07/12 01:25:41;;;;;;;0.70;0.70;;;25.30;44.40;;;;;;5062761;28;20517;-81
2022/07/12 01:28:09;;;;;;;0.70;0.70;;;25.30;44.40;;;;;;5055605;28;20417;-79
2022/07/12 01:30:39;;;;;;;0.80;0.80;;;25.30;44.50;;;;;;5053267;28;20466;-79
2022/07/12 01:33:07;;;;;;;1.20;0.70;;;25.20;44.40;;;;;;5047911;28;20532;-79
2022/07/12 01:35:36;;;;;;;0.60;0.60;;;25.30;44.40;;;;;;5052195;28;20480;-79
2022/07/12 01:38:05;;;;;;;0.70;0.70;;;25.20;44.40;;;;;;5035006;28;20535;-79
2022/07/12 01:40:35;;;;;;;0.80;0.80;;;25.20;44.40;;;;;;5059151;28;20564;-80
2022/07/12 01:43:04;;;;;;;0.60;0.60;;;25.20;44.40;;;;;;5061433;28;20507;-80
2022/07/12 01:45:32;;;;;;;0.90;0.70;;;25.20;44.50;;;;;;5054845;28;20425;-79
2022/07/12 01:48:03;;;;;;;0.67;0.67;;;25.20;44.30;;;;;;5056524;28;20442;-79
2022/07/12 01:50:31;;;;;;;0.60;0.60;;;25.20;44.40;;;;;;5057259;28;20474;-80
2022/07/12 01:52:59;;;;;;;0.70;0.70;;;25.20;44.40;;;;;;5061143;28;20441;-79
2022/07/12 01:55:28;;;;;;;0.77;0.77;;;25.20;44.40;;;;;;5065617;28;20450;-79
2022/07/12 01:57:58;;;;;;;0.80;0.70;;;25.20;44.50;;;;;;5064917;28;20518;-79
2022/07/12 02:00:26;;;;;;;0.70;0.70;;;25.10;44.40;;;;;;5061008;28;20980;-79
2022/07/12 02:02:55;;;;;;;0.70;0.70;;;25.20;44.80;;;;;;5065412;28;20489;-79
2022/07/12 02:05:24;;;;;;;0.70;0.70;;;25.10;44.40;;;;;;5063536;28;20435;-79
2022/07/12 02:07:52;;;;;;;0.77;0.77;;;25.10;44.40;;;;;;5060468;28;20425;-80
2022/07/12 02:10:20;;;;;;;0.60;0.60;;;25.20;44.50;;;;;;5048956;28;20472;-79
2022/07/12 02:12:49;;;;;;;0.67;0.67;;;25.10;44.40;;;;;;5043815;28;20446;-79
2022/07/12 02:15:19;;;;;;;0.70;0.70;;;25.10;44.40;;;;;;5042707;28;20483;-79
2022/07/12 02:17:47;;;;;;;0.70;0.70;;;25.10;44.30;;;;;;5043322;28;20441;-79
2022/07/12 02:20:16;;;;;;;0.77;0.70;;;25.10;44.30;;;;;;5042354;28;20454;-79
2022/07/12 02:22:44;;;;;;;0.70;0.70;;;25.10;44.40;;;;;;5043301;28;20449;-79
2022/07/12 02:25:12;;;;;;;0.70;0.70;;;25.10;44.20;;;;;;5047315;28;20455;-79
2022/07/12 02:27:41;;;;;;;0.73;0.73;;;25.10;44.30;;;;;;5043022;28;20447;-80
2022/07/12 02:30:10;;;;;;;0.70;0.70;;;25.10;44.30;;;;;;5040641;28;20446;-79
2022/07/12 02:32:39;;;;;;;0.70;0.70;;;25.00;44.20;;;;;;5039475;28;20525;-79
2022/07/12 02:35:08;;;;;;;0.80;0.80;;;25.00;44.30;;;;;;5037182;28;20492;-79
2022/07/12 02:37:36;;;;;;;0.83;0.70;;;25.00;44.30;;;;;;5040097;28;20449;-79
2022/07/12 02:42:51;;;;;;;0.80;0.80;;;25.00;44.30;;;;;;5046547;28;20479;-79
2022/07/12 02:45:20;;;;;;;0.70;0.70;;;25.00;44.30;;;;;;5060281;28;20464;-79
2022/07/12 02:47:49;;;;;;;0.70;0.70;;;25.00;44.30;;;;;;5057907;28;20499;-79
2022/07/12 02:50:18;;;;;;;0.80;0.80;;;25.00;44.30;;;;;;5057973;28;20493;-79
2022/07/12 02:52:46;;;;;;;2.00;0.77;;;25.00;44.20;;;;;;5058142;28;20471;-79
2022/07/12 02:55:14;;;;;;;0.70;0.70;;;25.00;44.40;;;;;;5058575;28;20433;-79
2022/07/12 02:57:43;;;;;;;0.70;0.70;;;25.00;44.30;;;;;;5056578;28;20532;-79
2022/07/12 03:00:12;;;;;;;0.70;0.67;;;25.00;44.30;;;;;;5055874;28;20466;-79
2022/07/12 03:02:40;;;;;;;0.80;0.80;;;25.00;44.40;;;;;;5050928;28;20445;-79
2022/07/12 03:05:10;;;;;;;0.80;0.80;;;25.00;44.40;;;;;;5034898;28;20457;-78
2022/07/12 03:07:38;;;;;;;0.80;0.80;;;25.00;44.40;;;;;;5035071;28;20453;-79
2022/07/12 03:10:07;;;;;;;0.80;0.80;;;25.00;44.30;;;;;;5035770;28;20509;-79
2022/07/12 03:12:36;;;;;;;0.70;0.70;;;25.00;44.40;;;;;;5035254;28;20471;-78
2022/07/12 03:15:05;;;;;;;2.63;1.20;;;25.00;44.40;;;;;;5034783;28;20451;-79
2022/07/12 03:17:33;;;;;;;1.40;0.90;;;25.00;44.30;;;;;;5041012;28;20554;-79
2022/07/12 03:20:01;;;;;;;0.80;0.80;;;24.90;44.30;;;;;;5036270;28;20484;-79
2022/07/12 03:22:31;;;;;;;0.70;0.70;;;24.90;44.30;;;;;;5036055;28;20501;-78
2022/07/12 03:24:59;;;;;;;0.70;0.70;;;24.90;44.40;;;;;;5035774;28;20449;-79
2022/07/12 03:27:27;;;;;;;0.73;0.73;;;24.90;44.40;;;;;;5036453;28;20541;-79
2022/07/12 03:29:56;;;;;;;0.63;0.63;;;24.90;44.50;;;;;;5036380;28;20545;-80
2022/07/12 03:32:24;;;;;;;0.80;0.80;;;24.90;44.30;;;;;;5036323;28;20422;-79
2022/07/12 03:34:52;;;;;;;0.70;0.70;;;24.90;44.50;;;;;;5048596;28;21052;-79
2022/07/12 03:37:20;;;;;;;0.70;0.70;;;24.90;44.30;;;;;;5056762;28;20445;-79
2022/07/12 03:39:50;;;;;;;0.80;0.80;;;24.90;44.30;;;;;;5057214;28;20451;-79
2022/07/12 03:42:18;;;;;;;0.90;0.70;;;24.90;44.50;;;;;;5057185;28;20450;-79
2022/07/12 03:44:46;;;;;;;0.80;0.80;;;24.90;44.50;;;;;;5057299;28;20449;-79
2022/07/12 03:47:15;;;;;;;0.70;0.70;;;24.90;44.40;;;;;;5057333;28;20446;-79
2022/07/12 03:49:43;;;;;;;0.70;0.70;;;24.90;44.60;;;;;;5057068;28;20443;-80
2022/07/12 03:52:11;;;;;;;0.70;0.70;;;24.90;44.40;;;;;;5054894;28;20413;-79
2022/07/12 03:54:40;;;;;;;0.70;0.70;;;24.90;44.50;;;;;;5040292;28;20472;-79
2022/07/12 03:57:15;;;;;;;0.70;0.70;;;24.90;44.60;;;;;;5038362;28;20897;-79
2022/07/12 03:59:44;;;;;;;0.80;0.80;;;24.80;44.40;;;;;;5040427;28;20491;-80
2022/07/12 04:02:12;;;;;;;0.70;0.70;;;24.80;44.60;;;;;;5043227;28;20450;-80
2022/07/12 04:04:41;;;;;;;0.70;0.70;;;24.80;44.30;;;;;;5040901;28;20418;-79
2022/07/12 04:07:09;;;;;;;0.70;0.70;;;24.80;44.40;;;;;;5049377;28;20451;-79
2022/07/12 04:09:37;;;;;;;0.70;0.70;;;24.80;44.60;;;;;;5057262;28;20451;-79
2022/07/12 04:12:06;;;;;;;0.70;0.70;;;24.80;44.70;;;;;;5057160;28;20438;-79
2022/07/12 04:14:36;;;;;;;0.90;0.90;;;24.90;44.60;;;;;;5056245;28;20469;-79
2022/07/12 04:17:05;;;;;;;1.43;0.73;;;24.90;44.60;;;;;;5056186;28;20443;-79
2022/07/12 04:19:33;;;;;;;0.70;0.70;;;24.90;44.60;;;;;;5055808;28;20449;-80
2022/07/12 04:22:02;;;;;;;0.70;0.70;;;24.90;44.50;;;;;;5056360;28;20429;-79
2022/07/12 04:24:30;;;;;;;0.60;0.60;;;24.90;44.50;;;;;;5055357;28;20501;-77
2022/07/12 04:26:58;;;;;;;0.70;0.70;;;24.80;44.50;;;;;;5045933;28;20498;-79
2022/07/12 04:29:26;;;;;;;0.60;0.60;;;24.80;44.50;;;;;;5053148;28;20429;-80
2022/07/12 04:32:09;;;;;;;1.00;0.70;;;24.80;44.60;;;;;;5058382;28;20424;-80
2022/07/12 04:34:37;;;;;;;0.80;0.70;;;24.80;44.70;;;;;;5057508;28;20463;-79
2022/07/12 04:37:05;;;;;;;0.70;0.70;;;24.80;44.50;;;;;;5058282;28;20438;-79
2022/07/12 04:39:33;;;;;;;0.70;0.70;;;24.80;44.60;;;;;;5056942;28;20546;-79
2022/07/12 04:42:02;;;;;;;1.83;0.80;;;24.80;44.60;;;;;;5052340;28;20506;-79
2022/07/12 04:44:30;;;;;;;0.77;0.77;;;24.90;44.60;;;;;;5037995;28;20494;-79
2022/07/12 04:46:59;;;;;;;0.70;0.70;;;24.90;44.50;;;;;;5037518;28;20479;-79
2022/07/12 04:49:28;;;;;;;0.70;0.70;;;24.90;44.60;;;;;;5038469;28;20452;-80
2022/07/12 04:51:56;;;;;;;0.60;0.60;;;24.90;44.60;;;;;;5037631;28;20534;-79
2022/07/12 04:54:24;;;;;;;0.70;0.70;;;24.90;44.50;;;;;;5038437;28;20465;-80
2022/07/12 04:56:52;;;;;;;0.67;0.67;;;24.90;44.50;;;;;;5039824;28;20443;-79
2022/07/12 04:59:20;;;;;;;0.70;0.70;;;24.90;44.50;;;;;;5058384;28;20579;-79
2022/07/12 05:01:48;;;;;;;0.67;0.67;;;24.90;44.40;;;;;;5057548;28;20451;-80
2022/07/12 05:04:18;;;;;;;0.73;0.73;;;24.90;44.50;;;;;;5056588;28;20448;-78
2022/07/12 05:06:46;;;;;;;0.87;0.87;;;24.90;44.40;;;;;;5058076;28;20421;-79
2022/07/12 05:09:14;;;;;;;0.63;0.63;;;25.00;44.50;;;;;;5057988;28;20460;-79
2022/07/12 05:11:42;;;;;;;0.70;0.70;;;25.00;44.60;;;;;;5057798;28;20421;-80
2022/07/12 05:14:11;;;;;;;0.80;0.80;;;25.00;44.50;;;;;;5056145;28;20515;-79
2022/07/12 05:16:41;;;;;;;1.03;0.73;;;25.00;44.50;;;;;;5056078;28;20425;-79
2022/07/12 05:19:09;;;;;;;0.70;0.70;;;25.00;44.90;;;;;;5059142;28;20433;-79
2022/07/12 05:21:41;;;;;;;0.73;0.73;;;25.00;44.30;;;;;;5058644;28;20442;-80
2022/07/12 05:24:10;;;;;;;0.70;0.70;;;25.00;44.40;;;;;;5058435;28;20474;-79
2022/07/12 05:26:38;;;;;;;0.70;0.70;;;25.10;44.50;;;;;;5064254;28;20470;-80
2022/07/12 05:29:07;;;;;;;0.60;0.60;;;25.10;44.30;;;;;;5068455;28;20421;-80
2022/07/12 05:31:35;;;;;;;0.70;0.70;;;25.20;44.20;;;;;;5068468;28;20444;-80
2022/07/12 05:34:03;;;;;;;0.70;0.70;;;25.20;44.30;;;;;;5047696;28;20960;-80
2022/07/12 05:36:31;;;;;;;0.70;0.70;;;25.20;44.40;;;;;;5048932;28;20475;-80
2022/07/12 05:39:01;;;;;;;0.90;0.60;;;25.20;44.10;;;;;;5049043;28;20471;-81
2022/07/12 05:41:29;;;;;;;0.70;0.70;;;25.20;44.30;;;;;;5049450;28;20446;-80
2022/07/12 05:43:57;;;;;;;0.70;0.70;;;25.20;44.20;;;;;;5049559;28;20498;-80
2022/07/12 05:46:26;;;;;;;0.73;0.73;;;25.30;44.20;;;;;;5042308;28;20481;-80
2022/07/12 05:48:54;;;;;;;0.70;0.70;;;25.30;44.10;;;;;;5042288;28;20480;-80
2022/07/12 05:54:22;;;;;;;0.70;0.70;;;25.40;44.00;;;;;;4999637;28;20647;-80
2022/07/12 05:56:50;;;;;;;0.67;0.67;;;25.40;44.10;;;;;;5046788;28;20840;-80
2022/07/12 05:59:19;;;;;;;0.60;0.60;;;25.40;44.20;;;;;;5061507;28;20498;-80
2022/07/12 06:01:47;;;;;;;0.60;0.60;;;25.50;44.10;;;;;;5061352;28;20421;-79
2022/07/12 06:04:15;;;;;;;0.60;0.60;;;25.50;44.10;;;;;;5061556;28;20437;-79
2022/07/12 06:06:44;;;;;;;0.70;0.70;;;25.50;44.00;;;;;;5056899;28;20442;-80
2022/07/12 06:09:12;;;;;;;0.70;0.70;;;25.60;43.90;;;;;;5040844;28;20418;-80
2022/07/12 06:11:42;;;;;;;0.70;0.70;;;25.60;43.80;;;;;;5041543;28;20496;-80
2022/07/12 06:14:10;;;;;;;0.80;0.80;;;25.60;43.80;;;;;;5039902;28;20948;-79
2022/07/12 06:16:38;;;;;;;0.60;0.60;;;25.70;43.80;;;;;;5041142;28;20482;-79
2022/07/12 06:19:06;;;;;;;0.80;0.80;;;25.70;43.90;;;;;;5039915;28;20494;-79
2022/07/12 06:21:35;;;;;;;0.83;0.60;;;25.70;43.70;;;;;;5039052;28;20452;-79
2022/07/12 06:24:04;;;;;;;0.70;0.70;;;25.90;43.70;;;;;;5056454;28;20458;-78
2022/07/12 06:26:32;;;;;;;0.70;0.70;;;25.90;43.60;;;;;;5059857;28;20452;-79
2022/07/12 06:29:02;;;;;;;0.70;0.70;;;25.90;43.50;;;;;;5059642;28;20420;-79
2022/07/12 06:31:30;;;;;;;0.80;0.80;;;25.90;43.60;;;;;;5058328;28;20425;-79
2022/07/12 06:34:03;;;;;;;0.70;0.70;;;25.90;43.60;;;;;;5058415;28;20474;-79
2022/07/12 06:36:31;;;;;;;0.80;0.80;;;26.00;43.60;;;;;;5058441;28;20470;-79
2022/07/12 06:38:59;;;;;;;0.70;0.70;;;26.00;43.70;;;;;;5046620;28;20446;-79
2022/07/12 06:41:29;;;;;;;0.70;0.70;;;26.00;43.70;;;;;;5038441;28;20905;-78
2022/07/12 06:43:57;;;;;;;1.00;1.00;;;26.10;43.60;;;;;;5038378;28;20875;-79
2022/07/12 06:46:27;;;;;;;0.70;0.70;;;26.10;43.60;;;;;;5038985;28;20485;-79
2022/07/12 06:48:55;;;;;;;0.80;0.80;;;26.20;43.60;;;;;;5038391;28;20450;-79
2022/07/12 06:51:23;;;;;;;0.80;0.80;;;26.20;43.50;;;;;;5039525;28;20443;-79
2022/07/12 06:53:55;;;;;;;0.80;0.80;;;26.20;43.50;;;;;;5041880;28;20525;-78
2022/07/12 06:56:23;;;;;;;0.70;0.70;;;26.30;43.60;;;;;;5054423;28;20458;-78
2022/07/12 06:58:51;;;;;;;0.90;0.90;;;26.30;43.50;;;;;;5060862;28;20450;-79
2022/07/12 07:01:19;;;;;;;0.80;0.80;;;26.40;43.60;;;;;;5058602;28;20504;-80
2022/07/12 07:03:49;;;;;;;0.70;0.70;;;26.50;43.50;;;;;;5059664;28;20771;-79
2022/07/12 07:06:17;;;;;;;0.80;0.80;;;26.50;43.50;;;;;;5059104;28;20454;-79
2022/07/12 07:08:45;;;;;;;0.70;0.70;;;26.60;43.40;;;;;;5057691;28;20874;-79
2022/07/12 07:11:14;;;;;;;0.90;0.90;;;26.60;44.10;;;;;;5057311;28;20452;-79
2022/07/12 07:13:42;;;;;;;0.80;0.80;;;26.70;43.50;;;;;;5055656;28;20967;-80
2022/07/12 07:16:20;;;;;;;0.87;0.87;;;26.70;43.40;;;;;;5043910;28;20926;-79
2022/07/12 07:18:49;;;;;;;0.83;0.83;;;26.80;43.40;;;;;;5038290;28;20505;-79
2022/07/12 07:21:17;;;;;;;0.80;0.80;;;26.80;43.40;;;;;;5037036;28;20480;-79
2022/07/12 07:23:46;;;;;;;1.10;0.80;;;26.80;43.50;;;;;;5036723;28;20821;-79
2022/07/12 07:26:15;;;;;;;0.80;0.80;;;26.90;43.50;;;;;;5036457;28;20449;-79
2022/07/12 07:31:29;;;;;;;0.80;0.80;;;26.90;43.50;;;;;;5055477;28;20592;-79
2022/07/12 07:33:58;;;;;;;1.10;0.90;;;27.00;43.60;;;;;;5067408;28;20445;-80
2022/07/12 07:36:26;;;;;;;0.80;0.80;;;27.10;43.60;;;;;;5060568;28;20429;-80
2022/07/12 07:38:55;;;;;;;0.80;0.80;;;27.10;43.50;;;;;;5061075;28;20554;-80
2022/07/12 07:41:23;;;;;;;0.90;0.90;;;27.20;43.50;;;;;;5062408;28;20532;-80
2022/07/12 07:43:51;;;;;;;0.90;0.90;;;27.30;43.50;;;;;;5062676;28;20464;-79
2022/07/12 07:46:20;;;;;;;1.53;0.80;;;27.40;43.40;;;;;;5058759;28;20429;-79
2022/07/12 07:48:48;;;;;;;0.97;0.97;;;27.50;43.30;;;;;;5062264;28;20443;-80
2022/07/12 07:51:18;;;;;;;1.00;1.00;;;27.50;43.20;;;;;;5061958;28;20447;-80
2022/07/12 07:53:46;;;;;;;1.10;1.10;;;27.60;43.30;;;;;;5063405;28;20470;-80
2022/07/12 07:56:14;;;;;;;0.90;0.90;;;27.70;43.20;;;;;;5063411;28;20454;-80
2022/07/12 07:58:42;;;;;;;1.00;1.00;;;27.70;43.20;;;;;;5062827;28;20497;-80
2022/07/12 08:01:11;;;;;;;0.80;0.80;;;27.80;43.30;;;;;;5062890;28;20466;-79
2022/07/12 08:03:39;;;;;;;0.97;0.97;;;27.90;43.20;;;;;;5065382;28;20844;-80
2022/07/12 08:06:07;;;;;;;0.90;0.90;;;27.90;43.10;;;;;;5063836;28;20442;-80
2022/07/12 08:08:37;;;;;;;1.10;1.10;;;28.00;43.10;;;;;;5064284;28;20425;-80
2022/07/12 08:11:25;;;;;;;1.00;1.00;;;28.10;43.20;;;;;;5062494;28;20436;-79
2022/07/12 08:13:53;;;;;;;1.10;1.10;;;28.20;43.20;;;;;;5062532;28;20452;-79
2022/07/12 08:16:21;;;;;;;1.10;1.00;;;28.20;43.10;;;;;;5061797;28;20450;-80
2022/07/12 08:18:50;;;;;;;0.90;0.90;;;28.30;43.20;;;;;;5061805;28;20553;-79
2022/07/12 08:21:18;;;;;;;1.00;1.00;;;28.40;43.20;;;;;;5055447;28;20470;-80
2022/07/12 08:23:47;;;;;;;1.10;1.10;;;28.50;43.10;;;;;;5044741;28;20464;-79
2022/07/12 08:26:16;;;;;;;1.20;1.20;;;28.60;43.10;;;;;;5042098;28;20451;-79
2022/07/12 08:28:44;;;;;;;1.13;1.10;;;28.70;42.80;;;;;;5040915;28;20474;-80
2022/07/12 08:31:13;;;;;;;0.97;0.97;;;28.80;42.80;;;;;;5062621;28;20461;-78
2022/07/12 08:33:41;;;;;;;1.07;1.07;;;28.90;42.80;;;;;;5068558;28;20436;-78
2022/07/12 08:36:09;;;;;;;1.20;1.20;;;29.00;42.80;;;;;;5070309;28;20425;-78
2022/07/12 08:38:38;;;;;;;1.00;1.00;;;29.20;42.80;;;;;;5053454;28;20507;-78
2022/07/12 08:41:09;;;;;;;1.00;1.00;;;29.30;42.80;;;;;;5060428;28;20474;-79
2022/07/12 08:43:37;;;;;;;1.30;1.30;;;29.40;42.60;;;;;;5059349;28;20473;-79
2022/07/12 08:46:06;;;;;;;1.17;1.07;;;29.60;42.70;;;;;;5054757;28;20416;-79
2022/07/12 08:48:34;;;;;;;1.30;1.30;;;29.60;42.50;;;;;;5055372;28;20550;-80
2022/07/12 08:51:03;;;;;;;1.03;1.03;;;29.70;42.50;;;;;;5054863;28;20417;-79
2022/07/12 08:53:32;;;;;;;1.20;1.20;;;29.80;43.20;;;;;;5051572;28;20985;-79
2022/07/12 08:56:00;;;;;;;1.63;1.53;;;30.00;42.70;;;;;;5041569;28;20448;-79
2022/07/12 08:58:29;;;;;;;1.10;1.10;;;30.10;42.60;;;;;;5033461;28;20493;-79
2022/07/12 09:00:58;;;;;;;1.30;1.30;;;30.20;42.50;;;;;;5034015;28;20982;-80
2022/07/12 09:03:27;;;;;;;1.20;1.20;;;30.40;42.60;;;;;;5035523;28;20514;-80
2022/07/12 09:05:56;;;;;;;1.00;1.00;;;30.60;42.60;;;;;;5034704;28;20454;-77
2022/07/12 09:08:27;;;;;;;1.10;1.10;;;30.70;42.40;;;;;;5033111;28;20423;-79
2022/07/12 09:10:56;;;;;;;1.10;1.10;;;30.90;42.30;;;;;;5053257;28;20474;-79
2022/07/12 09:13:48;;;;;;;1.33;1.33;;;31.10;42.30;;;;;;5051966;28;20493;-80
2022/07/12 09:16:17;;;;;;;0.80;0.80;;;31.30;42.20;;;;;;5056376;28;20443;-80
2022/07/12 09:18:45;;;;;;;0.97;0.97;;;31.50;42.00;;;;;;5050889;28;20496;-81
2022/07/12 09:21:22;;;;;;;0.90;0.90;;;31.60;41.90;;;;;;5043012;28;20469;-80
2022/07/12 09:23:54;;;;;;;0.93;0.93;;;31.70;41.80;;;;;;5052709;28;20460;-81
2022/07/12 09:26:22;;;;;;;0.80;0.80;;;31.90;41.70;;;;;;5058273;28;20537;-81
2022/07/12 09:28:52;;;;;;;0.90;0.90;;;32.10;41.60;;;;;;5050291;28;20549;-80
2022/07/12 09:31:20;;;;;;;1.20;1.00;;;32.30;41.40;;;;;;5038972;28;20432;-79
2022/07/12 09:36:56;;;;;;;1.00;1.00;;;32.50;41.30;;;;;;5053328;28;20892;-80
2022/07/12 09:39:24;;;;;;;1.10;1.00;;;32.70;41.20;;;;;;5051532;28;20454;-78
2022/07/12 09:41:54;;;;;;;0.80;0.80;;;32.90;41.10;;;;;;5045070;28;20561;-79
2022/07/12 09:44:23;;;;;;;0.80;0.80;;;33.10;41.60;;;;;;5056304;28;20545;-80
2022/07/12 09:46:51;;;;;;;0.90;0.90;;;33.20;40.90;;;;;;5054663;28;20430;-80
2022/07/12 09:49:19;;;;;;;0.80;0.80;;;33.30;40.80;;;;;;5055190;28;20444;-81
2022/07/12 09:51:53;;;;;;;1.00;0.80;;;33.40;40.70;;;;;;5055095;28;20422;-81
2022/07/12 09:54:23;;;;;;;0.90;0.90;;;33.60;40.60;;;;;;5055765;28;20535;-80
2022/07/12 09:56:59;;;;;;;0.80;0.80;;;33.80;40.50;;;;;;5051014;28;20541;-80
2022/07/12 09:59:29;;;;;;;1.90;0.83;;;33.90;40.40;;;;;;5042758;28;20823;-79
2022/07/12 10:01:59;;;;;;;0.90;0.90;;;34.00;40.30;;;;;;5035650;28;20557;-79
2022/07/12 10:04:29;;;;;;;0.83;0.83;;;34.20;40.20;;;;;;5050049;28;20462;-80
2022/07/12 10:06:57;;;;;;;0.83;0.80;;;34.30;40.00;;;;;;5054690;28;20522;-79
2022/07/12 10:09:25;;;;;;;0.70;0.70;;;34.50;39.90;;;;;;5054747;28;20959;-79
2022/07/12 10:11:53;;;;;;;0.70;0.70;;;34.70;39.80;;;;;;5053558;28;20513;-82
2022/07/12 10:14:28;;;;;;;2.07;0.80;;;34.80;39.70;;;;;;5050576;28;20510;-81
2022/07/12 10:16:56;;;;;;;0.80;0.80;;;34.90;39.60;;;;;;5059764;28;20456;-80
2022/07/12 10:19:25;;;;;;;1.33;0.80;;;35.00;39.40;;;;;;5063710;28;20441;-80
2022/07/12 10:21:54;;;;;;;0.97;0.87;;;35.20;39.40;;;;;;5045686;28;20585;-79
2022/07/12 10:24:48;;;;;;;2.00;0.90;;;35.30;39.30;;;;;;5054887;28;20463;-79
2022/07/12 10:27:33;;;;;;;1.00;0.90;;;35.40;39.40;;;;;;5049103;28;20484;-81
2022/07/12 10:30:19;;;;;;;0.60;0.60;;;35.60;39.20;;;;;;5049220;28;20451;-81
2022/07/12 10:32:48;;;;;;;2.50;0.80;;;35.80;39.10;;;;;;5050219;28;20446;-82
2022/07/12 10:35:20;;;;;;;1.23;0.80;;;36.00;38.60;;;;;;5052191;28;20442;-82
2022/07/12 10:38:18;;;;;;;2.10;0.73;;;36.20;38.40;;;;;;5053057;28;20423;-83
2022/07/12 10:40:50;;;;;;;1.87;0.77;;;36.40;38.40;;;;;;5048627;28;20483;-81
2022/07/12 10:44:04;;;;;;;0.70;0.70;;;36.60;37.80;;;;;;5056904;28;20466;-79
2022/07/12 10:46:25;;;;;;;4.40;0.70;;;36.70;37.50;;;;;;5051759;28;20479;-78
2022/07/12 10:49:26;;;;;;;1.67;0.87;;;36.80;37.50;;;;;;5057777;28;20443;-79
2022/07/12 10:52:16;;;;;;;1.27;0.73;;;36.80;37.50;;;;;;5038148;28;20506;-78
2022/07/12 10:54:50;;;;;;;0.70;0.70;;;36.70;37.50;;;;;;5038532;28;20446;-79
2022/07/12 10:57:17;;;;;;;1.30;0.60;;;36.60;37.30;;;;;;5038034;28;20523;-79
2022/07/12 10:59:46;;;;;;;1.57;0.70;;;36.50;37.40;;;;;;5039599;28;20444;-79
2022/07/12 11:02:15;;;;;;;0.80;0.80;;;36.40;37.50;;;;;;5037950;28;20957;-79
2022/07/12 11:04:52;;;;;;;0.90;0.70;;;36.30;37.60;;;;;;5057882;28;20430;-79
2022/07/12 11:07:20;;;;;;;0.93;0.77;;;36.30;37.70;;;;;;5057977;28;20505;-80
2022/07/12 11:09:52;;;;;;;0.80;0.80;;;36.30;37.60;;;;;;5060404;28;20462;-80
2022/07/12 11:12:20;;;;;;;1.10;0.70;;;36.40;37.60;;;;;;5059418;28;20462;-81
2022/07/12 11:14:47;;;;;;;1.87;0.70;;;36.50;37.50;;;;;;5059543;28;20531;-81
2022/07/12 11:17:16;;;;;;;0.80;0.80;;;36.60;37.50;;;;;;5059857;28;20518;-80
2022/07/12 11:19:45;;;;;;;0.80;0.80;;;36.70;37.40;;;;;;5057913;28;20457;-79
2022/07/12 11:22:18;;;;;;;0.90;0.57;;;36.80;37.20;;;;;;5057225;28;21051;-80
2022/07/12 11:24:46;;;;;;;1.13;0.80;;;37.00;37.00;;;;;;5056887;28;20477;-79
2022/07/12 11:27:14;;;;;;;0.73;0.73;;;37.40;36.60;;;;;;5054932;28;20447;-78
2022/07/12 11:29:57;;;;;;;1.27;0.70;;;38.10;35.80;;;;;;5056333;28;20964;-78
2022/07/12 11:32:39;;;;;;;0.60;0.60;;;38.80;35.80;;;;;;5055757;28;20521;-78
2022/07/12 11:35:19;;;;;;;1.00;0.90;;;39.40;34.30;;;;;;5057398;28;20446;-79
2022/07/12 11:37:51;;;;;;;1.77;0.70;;;40.10;33.40;;;;;;5056232;28;20481;-78
2022/07/12 11:40:28;;;;;;;0.97;0.70;;;40.90;32.30;;;;;;5055419;28;20510;-78
2022/07/12 11:42:58;;;;;;;1.37;0.80;;;41.40;31.70;;;;;;5055847;28;20508;-79
2022/07/12 11:45:27;;;;;;;0.70;0.70;;;41.90;30.90;;;;;;5055885;28;20453;-79
2022/07/12 11:47:57;;;;;;;0.70;0.70;;;42.20;30.30;;;;;;5056398;28;20533;-80
2022/07/12 11:50:25;;;;;;;1.17;0.70;;;42.50;30.00;;;;;;5056229;28;20513;-80
2022/07/12 11:53:01;;;;;;;1.77;0.80;;;42.60;29.70;;;;;;5054479;28;20476;-78
2022/07/12 11:55:29;;;;;;;0.70;0.70;;;42.60;29.80;;;;;;5040037;28;20515;-80
2022/07/12 11:58:04;;;;;;;1.77;0.60;;;42.80;29.80;;;;;;5038255;28;20439;-79
2022/07/12 12:00:32;;;;;;;0.60;0.60;;;43.00;29.70;;;;;;5038155;28;20510;-79
2022/07/12 12:03:01;;;;;;;0.97;0.80;;;43.20;29.20;;;;;;5037657;28;20471;-79
2022/07/12 12:05:29;;;;;;;2.33;0.50;;;43.40;29.10;;;;;;5036716;28;20439;-79
2022/07/12 12:07:58;;;;;;;2.93;0.70;;;43.70;29.00;;;;;;5036163;28;20542;-80
2022/07/12 12:10:25;;;;;;;0.60;0.60;;;43.90;28.80;;;;;;5049175;28;20521;-80
2022/07/12 12:12:54;;;;;;;0.60;0.60;;;44.10;28.70;;;;;;5056730;28;20461;-80
2022/07/12 12:15:23;;;;;;;0.60;0.60;;;44.20;28.50;;;;;;5057396;28;20510;-80
2022/07/12 12:17:53;;;;;;;0.60;0.60;;;43.90;28.70;;;;;;5059968;28;20439;-79
2022/07/12 12:20:23;;;;;;;1.33;0.60;;;43.60;28.90;;;;;;5063714;28;20457;-79
2022/07/12 12:22:53;;;;;;;2.13;0.70;;;43.30;29.00;;;;;;5063286;28;20478;-79
2022/07/12 12:25:22;;;;;;;0.60;0.60;;;43.00;29.30;;;;;;5058030;28;20473;-79
2022/07/12 12:27:50;;;;;;;0.63;0.63;;;42.70;29.60;;;;;;5057171;28;20519;-81
2022/07/12 12:30:49;;;;;;;0.77;0.67;;;42.50;29.80;;;;;;5057364;28;20430;-80
2022/07/12 12:33:35;;;;;;;0.70;0.70;;;42.30;29.90;;;;;;5056572;28;20450;-79
2022/07/12 12:36:18;;;;;;;0.60;0.60;;;42.20;30.20;;;;;;5057193;28;20500;-80
2022/07/12 12:38:46;;;;;;;1.47;0.70;;;42.20;30.30;;;;;;5056936;28;20410;-80
2022/07/12 12:41:13;;;;;;;0.97;0.63;;;42.00;30.10;;;;;;5057560;28;20513;-80
2022/07/12 12:43:41;;;;;;;0.60;0.60;;;41.90;30.30;;;;;;5056969;28;20484;-81
2022/07/12 12:46:09;;;;;;;1.90;0.60;;;41.80;30.60;;;;;;5057434;28;20521;-80
2022/07/12 12:48:37;;;;;;;1.17;0.70;;;41.60;30.60;;;;;;5056153;28;20465;-80
2022/07/12 12:51:07;;;;;;;1.23;0.70;;;41.60;30.90;;;;;;5058332;28;20504;-80
2022/07/12 12:53:38;;;;;;;0.97;0.60;;;41.60;30.90;;;;;;5058309;28;20457;-80
2022/07/12 12:56:08;;;;;;;0.60;0.60;;;41.60;31.00;;;;;;5057070;28;20472;-80
2022/07/12 12:58:36;;;;;;;3.67;0.73;;;41.50;30.90;;;;;;5056626;28;20498;-80
2022/07/12 13:01:04;;;;;;;0.80;0.50;;;41.50;30.90;;;;;;5056403;28;20494;-81
2022/07/12 13:03:32;;;;;;;4.03;0.73;;;41.40;31.10;;;;;;5056012;28;20542;-81
2022/07/12 13:06:01;;;;;;;1.67;0.70;;;41.20;31.20;;;;;;5056590;28;20462;-81
2022/07/12 13:08:29;;;;;;;1.00;0.63;;;41.00;31.50;;;;;;5056946;28;20442;-81
2022/07/12 13:13:43;;;;;;;0.83;0.70;;;40.70;31.70;;;;;;5057065;28;20537;-81
2022/07/12 13:16:11;;;;;;;1.43;0.77;;;40.60;31.70;;;;;;5056813;28;20525;-82